sensor_id;sensor_type;location;lat;lon;timestamp;pressure;altitude;pressure_sealevel;temperature;humidity
18819;BME280;9537;45.594;9.294;2023-10-31T00:00:10;98092.84;;;15.36;100.00
18819;BME280;9537;45.594;9.294;2023-10-31T00:01:11;98092.03;;;15.36;100.00
18819;BME280;9537;45.594;9.294;2023-10-31T00:02:13;98100.81;;;15.36;100.00
18819;BME280;9537;45.594;9.294;2023-10-31T00:03:14;98085.91;;;15.35;100.00
18819;BME280;9537;45.594;9.294;2023-10-31T00:04:16;98088.00;;;15.33;100.00
18819;BME280;9537;45.594;9.294;2023-10-31T00:05:17;98086.97;;;15.34;100.00
18819;BME280;9537;45.594;9.294;2023-10-31T00:06:19;98090.91;;;15.31;100.00
18819;BME280;9537;45.594;9.294;2023-10-31T00:07:19;98088.25;;;15.31;100.00
18819;BME280;9537;45.594;9.294;2023-10-31T00:08:21;98094.59;;;15.30;100.00
18819;BME280;9537;45.594;9.294;2023-10-31T00:09:22;98091.13;;;15.30;100.00
18819;BME280;9537;45.594;9.294;2023-10-31T00:10:23;98092.78;;;15.31;100.00
18819;BME280;9537;45.594;9.294;2023-10-31T00:11:25;98093.56;;;15.31;100.00
18819;BME280;9537;45.594;9.294;2023-10-31T00:12:25;98095.44;;;15.31;100.00
18819;BME280;9537;45.594;9.294;2023-10-31T00:13:27;98093.31;;;15.33;100.00
18819;BME280;9537;45.594;9.294;2023-10-31T00:14:28;98097.03;;;15.32;100.00
18819;BME280;9537;45.594;9.294;2023-10-31T00:15:31;98103.16;;;15.32;100.00
18819;BME280;9537;45.594;9.294;2023-10-31T00:16:32;98100.75;;;15.31;100.00
18819;BME280;9537;45.594;9.294;2023-10-31T00:17:34;98093.56;;;15.31;100.00
18819;BME280;9537;45.594;9.294;2023-10-31T00:18:34;98094.06;;;15.28;100.00
18819;BME280;9537;45.594;9.294;2023-10-31T00:19:36;98094.06;;;15.28;100.00
18819;BME280;9537;45.594;9.294;2023-10-31T00:20:37;98101.19;;;15.28;100.00
18819;BME280;9537;45.594;9.294;2023-10-31T00:21:39;98096.72;;;15.28;100.00
18819;BME280;9537;45.594;9.294;2023-10-31T00:22:39;98100.19;;;15.29;100.00
18819;BME280;9537;45.594;9.294;2023-10-31T00:23:44;98105.25;;;15.30;100.00
18819;BME280;9537;45.594;9.294;2023-10-31T00:24:45;98102.56;;;15.30;100.00
18819;BME280;9537;45.594;9.294;2023-10-31T00:25:47;98113.22;;;15.30;100.00
18819;BME280;9537;45.594;9.294;2023-10-31T00:26:48;98117.75;;;15.30;100.00
18819;BME280;9537;45.594;9.294;2023-10-31T00:27:50;98121.47;;;15.29;100.00
18819;BME280;9537;45.594;9.294;2023-10-31T00:28:50;98119.81;;;15.28;100.00
18819;BME280;9537;45.594;9.294;2023-10-31T00:29:52;98125.97;;;15.28;100.00
18819;BME280;9537;45.594;9.294;2023-10-31T00:30:54;98127.56;;;15.29;100.00
18819;BME280;9537;45.594;9.294;2023-10-31T00:31:56;98135.56;;;15.29;100.00
18819;BME280;9537;45.594;9.294;2023-10-31T00:32:57;98138.22;;;15.29;100.00
18819;BME280;9537;45.594;9.294;2023-10-31T00:33:58;98138.22;;;15.29;100.00
18819;BME280;9537;45.594;9.294;2023-10-31T00:35:00;98134.19;;;15.27;100.00
18819;BME280;9537;45.594;9.294;2023-10-31T00:36:01;98131.78;;;15.25;100.00
18819;BME280;9537;45.594;9.294;2023-10-31T00:37:03;98135.47;;;15.24;100.00
18819;BME280;9537;45.594;9.294;2023-10-31T00:38:04;98134.19;;;15.27;100.00
18819;BME280;9537;45.594;9.294;2023-10-31T00:39:06;98135.25;;;15.26;100.00
18819;BME280;9537;45.594;9.294;2023-10-31T00:40:07;98131.78;;;15.25;100.00
18819;BME280;9537;45.594;9.294;2023-10-31T00:41:11;98124.03;;;15.24;100.00
18819;BME280;9537;45.594;9.294;2023-10-31T00:42:12;98131.19;;;15.23;100.00
18819;BME280;9537;45.594;9.294;2023-10-31T00:43:15;98133.84;;;15.23;100.00
18819;BME280;9537;45.594;9.294;2023-10-31T00:44:15;98140.78;;;15.24;100.00
18819;BME280;9537;45.594;9.294;2023-10-31T00:45:17;98134.44;;;15.25;100.00
18819;BME280;9537;45.594;9.294;2023-10-31T00:46:19;98134.66;;;15.24;100.00
18819;BME280;9537;45.594;9.294;2023-10-31T00:47:21;98130.94;;;15.25;100.00
18819;BME280;9537;45.594;9.294;2023-10-31T00:48:22;98130.16;;;15.24;100.00
18819;BME280;9537;45.594;9.294;2023-10-31T00:49:24;98122.97;;;15.25;100.00
18819;BME280;9537;45.594;9.294;2023-10-31T00:50:25;98130.94;;;15.25;100.00
18819;BME280;9537;45.594;9.294;2023-10-31T00:51:26;98129.91;;;15.26;100.00
18819;BME280;9537;45.594;9.294;2023-10-31T00:52:27;98129.13;;;15.25;100.00
18819;BME280;9537;45.594;9.294;2023-10-31T00:53:28;98133.38;;;15.26;100.00
18819;BME280;9537;45.594;9.294;2023-10-31T00:54:30;98132.81;;;15.24;100.00
18819;BME280;9537;45.594;9.294;2023-10-31T00:55:30;98134.44;;;15.25;100.00
18819;BME280;9537;45.594;9.294;2023-10-31T00:56:32;98129.34;;;15.24;100.00
18819;BME280;9537;45.594;9.294;2023-10-31T00:57:33;98132.00;;;15.24;100.00
18819;BME280;9537;45.594;9.294;2023-10-31T00:58:34;98129.59;;;15.22;100.00
18819;BME280;9537;45.594;9.294;2023-10-31T00:59:36;98127.97;;;15.21;100.00
18819;BME280;9537;45.594;9.294;2023-10-31T01:00:36;98125.31;;;15.21;100.00
18819;BME280;9537;45.594;9.294;2023-10-31T01:01:40;98131.19;;;15.23;100.00
18819;BME280;9537;45.594;9.294;2023-10-31T01:02:41;98122.41;;;15.23;100.00
18819;BME280;9537;45.594;9.294;2023-10-31T01:03:43;98126.94;;;15.22;100.00
18819;BME280;9537;45.594;9.294;2023-10-31T01:04:44;98123.22;;;15.23;100.00
18819;BME280;9537;45.594;9.294;2023-10-31T01:05:46;98120.56;;;15.23;100.00
18819;BME280;9537;45.594;9.294;2023-10-31T01:06:46;98105.88;;;15.21;100.00
18819;BME280;9537;45.594;9.294;2023-10-31T01:07:48;98109.34;;;15.21;100.00
18819;BME280;9537;45.594;9.294;2023-10-31T01:08:49;98102.16;;;15.22;100.00
18819;BME280;9537;45.594;9.294;2023-10-31T01:09:51;98111.22;;;15.21;100.00
18819;BME280;9537;45.594;9.294;2023-10-31T01:10:51;98094.44;;;15.20;100.00
18819;BME280;9537;45.594;9.294;2023-10-31T01:11:52;98088.34;;;15.20;100.00
18819;BME280;9537;45.594;9.294;2023-10-31T01:12:54;98098.72;;;15.21;100.00
18819;BME280;9537;45.594;9.294;2023-10-31T01:13:55;98098.97;;;15.20;100.00
18819;BME280;9537;45.594;9.294;2023-10-31T01:14:56;98090.16;;;15.19;100.00
18819;BME280;9537;45.594;9.294;2023-10-31T01:15:57;98088.06;;;15.21;100.00
18819;BME280;9537;45.594;9.294;2023-10-31T01:17:00;98079.53;;;15.19;100.00
18819;BME280;9537;45.594;9.294;2023-10-31T01:18:01;98071.53;;;15.19;100.00
18819;BME280;9537;45.594;9.294;2023-10-31T01:19:03;98072.03;;;15.16;100.00
18819;BME280;9537;45.594;9.294;2023-10-31T01:20:06;98069.38;;;15.16;100.00
18819;BME280;9537;45.594;9.294;2023-10-31T01:21:08;98069.38;;;15.16;100.00
18819;BME280;9537;45.594;9.294;2023-10-31T01:22:09;98067.75;;;15.15;100.00
18819;BME280;9537;45.594;9.294;2023-10-31T01:23:11;98065.09;;;15.15;100.00
18819;BME280;9537;45.594;9.294;2023-10-31T01:24:12;98071.22;;;15.16;100.00
18819;BME280;9537;45.594;9.294;2023-10-31T01:25:13;98063.25;;;15.16;100.00
18819;BME280;9537;45.594;9.294;2023-10-31T01:26:14;98060.00;;;15.14;100.00
18819;BME280;9537;45.594;9.294;2023-10-31T01:27:16;98052.03;;;15.14;100.00
18819;BME280;9537;45.594;9.294;2023-10-31T01:28:17;98059.78;;;15.15;100.00
18819;BME280;9537;45.594;9.294;2023-10-31T01:29:19;98059.78;;;15.15;100.00
18819;BME280;9537;45.594;9.294;2023-10-31T01:30:19;98058.19;;;15.14;100.00
18819;BME280;9537;45.594;9.294;2023-10-31T01:31:21;98052.88;;;15.14;100.00
18819;BME280;9537;45.594;9.294;2023-10-31T01:32:23;98061.88;;;15.13;100.00
18819;BME280;9537;45.594;9.294;2023-10-31T01:33:25;98065.34;;;15.14;100.00
18819;BME280;9537;45.594;9.294;2023-10-31T01:34:26;98060.00;;;15.14;100.00
18819;BME280;9537;45.594;9.294;2023-10-31T01:35:27;98056.56;;;15.13;100.00
18819;BME280;9537;45.594;9.294;2023-10-31T01:36:28;98063.72;;;15.13;100.00
18819;BME280;9537;45.594;9.294;2023-10-31T01:37:30;98060.84;;;15.14;100.00
18819;BME280;9537;45.594;9.294;2023-10-31T01:38:31;98064.53;;;15.13;100.00
18819;BME280;9537;45.594;9.294;2023-10-31T01:39:32;98063.72;;;15.13;100.00
18819;BME280;9537;45.594;9.294;2023-10-31T01:40:33;98062.13;;;15.12;100.00
18819;BME280;9537;45.594;9.294;2023-10-31T01:41:34;98055.75;;;15.13;100.00
18819;BME280;9537;45.594;9.294;2023-10-31T01:42:36;98060.50;;;15.10;100.00
18819;BME280;9537;45.594;9.294;2023-10-31T01:43:37;98054.94;;;15.12;100.00
18819;BME280;9537;45.594;9.294;2023-10-31T01:44:39;98049.88;;;15.10;100.00
18819;BME280;9537;45.594;9.294;2023-10-31T01:45:40;98050.69;;;15.11;100.00
18819;BME280;9537;45.594;9.294;2023-10-31T01:46:42;98053.56;;;15.09;100.00
18819;BME280;9537;45.594;9.294;2023-10-31T01:47:45;98041.34;;;15.08;100.00
18819;BME280;9537;45.594;9.294;2023-10-31T01:48:49;98051.72;;;15.10;100.00
18819;BME280;9537;45.594;9.294;2023-10-31T01:49:50;98051.72;;;15.10;100.00
18819;BME280;9537;45.594;9.294;2023-10-31T01:50:51;98050.34;;;15.07;100.00
18819;BME280;9537;45.594;9.294;2023-10-31T01:51:53;98045.84;;;15.08;100.00
18819;BME280;9537;45.594;9.294;2023-10-31T01:52:54;98048.53;;;15.08;100.00
18819;BME280;9537;45.594;9.294;2023-10-31T01:53:56;98038.91;;;15.07;100.00
18819;BME280;9537;45.594;9.294;2023-10-31T01:54:57;98050.13;;;15.09;100.00
18819;BME280;9537;45.594;9.294;2023-10-31T01:55:59;98046.09;;;15.06;100.00
18819;BME280;9537;45.594;9.294;2023-10-31T01:57:02;98053.25;;;15.06;100.00
18819;BME280;9537;45.594;9.294;2023-10-31T01:58:06;98053.50;;;15.04;100.00
18819;BME280;9537;45.594;9.294;2023-10-31T01:59:07;98042.84;;;15.04;100.00
18819;BME280;9537;45.594;9.294;2023-10-31T02:00:08;98052.94;;;15.02;100.00
18819;BME280;9537;45.594;9.294;2023-10-31T02:01:10;98048.44;;;15.03;100.00
18819;BME280;9537;45.594;9.294;2023-10-31T02:02:11;98039.66;;;15.02;100.00
18819;BME280;9537;45.594;9.294;2023-10-31T02:03:14;98036.16;;;15.02;100.00
18819;BME280;9537;45.594;9.294;2023-10-31T02:04:15;98041.47;;;15.02;100.00
18819;BME280;9537;45.594;9.294;2023-10-31T02:05:17;98037.22;;;15.01;100.00
18819;BME280;9537;45.594;9.294;2023-10-31T02:06:18;98025.53;;;15.02;100.00
18819;BME280;9537;45.594;9.294;2023-10-31T02:07:20;98040.44;;;15.03;100.00
18819;BME280;9537;45.594;9.294;2023-10-31T02:08:21;98042.53;;;15.01;100.00
18819;BME280;9537;45.594;9.294;2023-10-31T02:09:22;98044.13;;;15.02;100.00
18819;BME280;9537;45.594;9.294;2023-10-31T02:10:25;98038.81;;;15.02;100.00
18819;BME280;9537;45.594;9.294;2023-10-31T02:11:26;98037.22;;;15.01;100.00
18819;BME280;9537;45.594;9.294;2023-10-31T02:12:34;98028.19;;;15.02;100.00
18819;BME280;9537;45.594;9.294;2023-10-31T02:13:36;98021.28;;;15.01;100.00
18819;BME280;9537;45.594;9.294;2023-10-31T02:14:37;98021.03;;;15.02;100.00
18819;BME280;9537;45.594;9.294;2023-10-31T02:15:40;98003.47;;;15.01;100.00
18819;BME280;9537;45.594;9.294;2023-10-31T02:16:40;97998.13;;;15.01;100.00
18819;BME280;9537;45.594;9.294;2023-10-31T02:17:42;97992.03;;;15.01;100.00
18819;BME280;9537;45.594;9.294;2023-10-31T02:18:44;98001.06;;;15.00;100.00
18819;BME280;9537;45.594;9.294;2023-10-31T02:19:45;97998.41;;;15.00;100.00
18819;BME280;9537;45.594;9.294;2023-10-31T02:20:48;97998.13;;;15.01;100.00
18819;BME280;9537;45.594;9.294;2023-10-31T02:21:50;97996.28;;;15.02;100.00
18819;BME280;9537;45.594;9.294;2023-10-31T02:22:52;97993.63;;;15.02;100.00
18819;BME280;9537;45.594;9.294;2023-10-31T02:23:57;97992.81;;;15.01;100.00
18819;BME280;9537;45.594;9.294;2023-10-31T02:24:58;97990.97;;;15.02;100.00
18819;BME280;9537;45.594;9.294;2023-10-31T02:26:00;97979.78;;;15.00;100.00
18819;BME280;9537;45.594;9.294;2023-10-31T02:27:02;97979.78;;;15.00;100.00
18819;BME280;9537;45.594;9.294;2023-10-31T02:28:04;97975.00;;;15.02;100.00
18819;BME280;9537;45.594;9.294;2023-10-31T02:29:05;97980.31;;;15.02;100.00
18819;BME280;9537;45.594;9.294;2023-10-31T02:30:08;97973.19;;;15.02;100.00
18819;BME280;9537;45.594;9.294;2023-10-31T02:31:09;97967.88;;;15.02;100.00
18819;BME280;9537;45.594;9.294;2023-10-31T02:32:09;97966.00;;;15.03;100.00
18819;BME280;9537;45.594;9.294;2023-10-31T02:33:11;97963.34;;;15.03;100.00
18819;BME280;9537;45.594;9.294;2023-10-31T02:34:13;97961.50;;;15.03;100.00
18819;BME280;9537;45.594;9.294;2023-10-31T02:35:16;97952.72;;;15.03;100.00
18819;BME280;9537;45.594;9.294;2023-10-31T02:36:17;97954.31;;;15.04;100.00
18819;BME280;9537;45.594;9.294;2023-10-31T02:37:20;97943.44;;;15.05;100.00
18819;BME280;9537;45.594;9.294;2023-10-31T02:38:21;97944.47;;;15.04;100.00
18819;BME280;9537;45.594;9.294;2023-10-31T02:39:23;97930.97;;;15.06;100.00
18819;BME280;9537;45.594;9.294;2023-10-31T02:40:24;97928.28;;;15.06;100.00
18819;BME280;9537;45.594;9.294;2023-10-31T02:41:24;97928.28;;;15.06;100.00
18819;BME280;9537;45.594;9.294;2023-10-31T02:42:26;97929.91;;;15.07;100.00
18819;BME280;9537;45.594;9.294;2023-10-31T02:43:27;97917.41;;;15.07;100.00
18819;BME280;9537;45.594;9.294;2023-10-31T02:44:29;97916.38;;;15.08;100.00
18819;BME280;9537;45.594;9.294;2023-10-31T02:45:30;97916.38;;;15.08;100.00
18819;BME280;9537;45.594;9.294;2023-10-31T02:46:31;97912.91;;;15.08;100.00
18819;BME280;9537;45.594;9.294;2023-10-31T02:47:32;97909.19;;;15.09;100.00
18819;BME280;9537;45.594;9.294;2023-10-31T02:48:33;97905.47;;;15.10;100.00
18819;BME280;9537;45.594;9.294;2023-10-31T02:49:39;97907.09;;;15.11;100.00
18819;BME280;9537;45.594;9.294;2023-10-31T02:50:40;97906.28;;;15.10;100.00
18819;BME280;9537;45.594;9.294;2023-10-31T02:51:42;97901.78;;;15.11;100.00
18819;BME280;9537;45.594;9.294;2023-10-31T02:52:44;97905.47;;;15.10;100.00
18819;BME280;9537;45.594;9.294;2023-10-31T02:53:45;97894.63;;;15.12;100.00
18819;BME280;9537;45.594;9.294;2023-10-31T02:54:46;97894.34;;;15.13;100.00
18819;BME280;9537;45.594;9.294;2023-10-31T02:55:47;97882.91;;;15.13;100.00
18819;BME280;9537;45.594;9.294;2023-10-31T02:56:49;97875.72;;;15.13;100.00
18819;BME280;9537;45.594;9.294;2023-10-31T02:57:49;97882.13;;;15.12;100.00
18819;BME280;9537;45.594;9.294;2023-10-31T02:58:50;97874.13;;;15.12;100.00
18819;BME280;9537;45.594;9.294;2023-10-31T02:59:52;97874.94;;;15.13;100.00
18819;BME280;9537;45.594;9.294;2023-10-31T03:00:53;97868.56;;;15.14;100.00
18819;BME280;9537;45.594;9.294;2023-10-31T03:01:53;97863.25;;;15.14;100.00
18819;BME280;9537;45.594;9.294;2023-10-31T03:02:55;97863.25;;;15.14;100.00
18819;BME280;9537;45.594;9.294;2023-10-31T03:03:56;97856.31;;;15.13;100.00
18819;BME280;9537;45.594;9.294;2023-10-31T03:04:57;97863.81;;;15.16;100.00
18819;BME280;9537;45.594;9.294;2023-10-31T03:05:59;97857.91;;;15.14;100.00
18819;BME280;9537;45.594;9.294;2023-10-31T03:06:59;97851.81;;;15.13;100.00
18819;BME280;9537;45.594;9.294;2023-10-31T03:08:02;97847.28;;;15.14;100.00
18819;BME280;9537;45.594;9.294;2023-10-31T03:09:04;97843.81;;;15.13;100.00
18819;BME280;9537;45.594;9.294;2023-10-31T03:10:06;97839.31;;;15.14;100.00
18819;BME280;9537;45.594;9.294;2023-10-31T03:11:08;97826.00;;;15.14;100.00
18819;BME280;9537;45.594;9.294;2023-10-31T03:12:09;97822.31;;;15.15;100.00
18819;BME280;9537;45.594;9.294;2023-10-31T03:13:10;97820.47;;;15.15;100.00
18819;BME280;9537;45.594;9.294;2023-10-31T03:14:11;97817.81;;;15.15;100.00
18819;BME280;9537;45.594;9.294;2023-10-31T03:15:13;97817.00;;;15.15;100.00
18819;BME280;9537;45.594;9.294;2023-10-31T03:16:14;97807.97;;;15.16;100.00
18819;BME280;9537;45.594;9.294;2023-10-31T03:17:16;97804.50;;;15.15;100.00
18819;BME280;9537;45.594;9.294;2023-10-31T03:18:16;97801.06;;;15.15;100.00
18819;BME280;9537;45.594;9.294;2023-10-31T03:19:19;97796.53;;;15.15;100.00
18819;BME280;9537;45.594;9.294;2023-10-31T03:20:19;97792.00;;;15.16;100.00
18819;BME280;9537;45.594;9.294;2023-10-31T03:21:20;97785.66;;;15.17;100.00
18819;BME280;9537;45.594;9.294;2023-10-31T03:22:22;97786.47;;;15.17;100.00
18819;BME280;9537;45.594;9.294;2023-10-31T03:23:24;97793.38;;;15.18;100.00
18819;BME280;9537;45.594;9.294;2023-10-31T03:24:25;97794.44;;;15.17;100.00
18819;BME280;9537;45.594;9.294;2023-10-31T03:25:27;97779.28;;;15.18;100.00
18819;BME280;9537;45.594;9.294;2023-10-31T03:26:28;97789.91;;;15.18;100.00
18819;BME280;9537;45.594;9.294;2023-10-31T03:27:29;97788.06;;;15.18;100.00
18819;BME280;9537;45.594;9.294;2023-10-31T03:28:30;97789.91;;;15.18;100.00
18819;BME280;9537;45.594;9.294;2023-10-31T03:29:32;97783.81;;;15.17;100.00
18819;BME280;9537;45.594;9.294;2023-10-31T03:30:33;97790.72;;;15.18;100.00
18819;BME280;9537;45.594;9.294;2023-10-31T03:31:33;97786.19;;;15.19;100.00
18819;BME280;9537;45.594;9.294;2023-10-31T03:32:35;97787.00;;;15.19;100.00
18819;BME280;9537;45.594;9.294;2023-10-31T03:33:36;97776.91;;;15.21;100.00
18819;BME280;9537;45.594;9.294;2023-10-31T03:34:38;97775.06;;;15.22;100.00
18819;BME280;9537;45.594;9.294;2023-10-31T03:35:39;97766.28;;;15.21;100.00
18819;BME280;9537;45.594;9.294;2023-10-31T03:36:40;97760.16;;;15.21;100.00
18819;BME280;9537;45.594;9.294;2023-10-31T03:37:41;97752.19;;;15.21;100.00
18819;BME280;9537;45.594;9.294;2023-10-31T03:38:44;97739.69;;;15.21;100.00
18819;BME280;9537;45.594;9.294;2023-10-31T03:39:45;97731.72;;;15.21;100.00
18819;BME280;9537;45.594;9.294;2023-10-31T03:40:47;97716.56;;;15.22;100.00
18819;BME280;9537;45.594;9.294;2023-10-31T03:41:48;97712.06;;;15.22;100.00
18819;BME280;9537;45.594;9.294;2023-10-31T03:42:49;97707.53;;;15.23;100.00
18819;BME280;9537;45.594;9.294;2023-10-31T03:43:50;97703.03;;;15.23;100.00
18819;BME280;9537;45.594;9.294;2023-10-31T03:44:52;97694.25;;;15.23;100.00
18819;BME280;9537;45.594;9.294;2023-10-31T03:45:53;97682.81;;;15.22;100.00
18819;BME280;9537;45.594;9.294;2023-10-31T03:46:55;97663.63;;;15.20;100.00
18819;BME280;9537;45.594;9.294;2023-10-31T03:47:56;97660.72;;;15.22;100.00
18819;BME280;9537;45.594;9.294;2023-10-31T03:48:57;97679.31;;;15.22;100.00
18819;BME280;9537;45.594;9.294;2023-10-31T03:49:59;97697.94;;;15.22;100.00
18819;BME280;9537;45.594;9.294;2023-10-31T03:50:59;97715.19;;;15.19;100.00
18819;BME280;9537;45.594;9.294;2023-10-31T03:52:01;97730.34;;;15.19;100.00
18819;BME280;9537;45.594;9.294;2023-10-31T03:53:02;97735.44;;;15.20;100.00
18819;BME280;9537;45.594;9.294;2023-10-31T03:54:05;97734.38;;;15.21;100.00
18819;BME280;9537;45.594;9.294;2023-10-31T03:55:07;97716.56;;;15.22;100.00
18819;BME280;9537;45.594;9.294;2023-10-31T03:56:09;97723.22;;;15.24;100.00
18819;BME280;9537;45.594;9.294;2023-10-31T03:57:10;97693.44;;;15.22;100.00
18819;BME280;9537;45.594;9.294;2023-10-31T03:58:10;97712.06;;;15.22;100.00
18819;BME280;9537;45.594;9.294;2023-10-31T03:59:12;97738.59;;;15.17;100.00
18819;BME280;9537;45.594;9.294;2023-10-31T04:00:14;97734.81;;;15.13;100.00
18819;BME280;9537;45.594;9.294;2023-10-31T04:01:16;97766.84;;;15.01;100.00
18819;BME280;9537;45.594;9.294;2023-10-31T04:02:16;97800.69;;;14.67;100.00
18819;BME280;9537;45.594;9.294;2023-10-31T04:03:18;97776.47;;;14.47;100.00
18819;BME280;9537;45.594;9.294;2023-10-31T04:04:19;97784.34;;;14.25;100.00
18819;BME280;9537;45.594;9.294;2023-10-31T04:05:21;97795.41;;;14.16;100.00
18819;BME280;9537;45.594;9.294;2023-10-31T04:06:23;97783.88;;;14.11;100.00
18819;BME280;9537;45.594;9.294;2023-10-31T04:07:25;97782.53;;;14.08;100.00
18819;BME280;9537;45.594;9.294;2023-10-31T04:08:26;97831.06;;;13.92;100.00
18819;BME280;9537;45.594;9.294;2023-10-31T04:09:29;97849.72;;;13.80;100.00
18819;BME280;9537;45.594;9.294;2023-10-31T04:10:29;97873.06;;;13.66;100.00
18819;BME280;9537;45.594;9.294;2023-10-31T04:11:31;97925.00;;;13.62;100.00
18819;BME280;9537;45.594;9.294;2023-10-31T04:12:32;97981.03;;;13.66;100.00
18819;BME280;9537;45.594;9.294;2023-10-31T04:13:33;97993.81;;;13.69;100.00
18819;BME280;9537;45.594;9.294;2023-10-31T04:14:35;97997.75;;;13.66;100.00
18819;BME280;9537;45.594;9.294;2023-10-31T04:15:35;97974.56;;;13.62;100.00
18819;BME280;9537;45.594;9.294;2023-10-31T04:16:39;97923.94;;;13.63;100.00
18819;BME280;9537;45.594;9.294;2023-10-31T04:17:40;97909.75;;;13.58;100.00
18819;BME280;9537;45.594;9.294;2023-10-31T04:18:42;97909.19;;;13.56;100.00
18819;BME280;9537;45.594;9.294;2023-10-31T04:19:42;97929.03;;;13.53;100.00
18819;BME280;9537;45.594;9.294;2023-10-31T04:20:44;97909.44;;;13.54;100.00
18819;BME280;9537;45.594;9.294;2023-10-31T04:21:45;97905.41;;;13.51;100.00
18819;BME280;9537;45.594;9.294;2023-10-31T04:22:47;97892.13;;;13.51;100.00
18819;BME280;9537;45.594;9.294;2023-10-31T04:23:47;97877.81;;;13.52;100.00
18819;BME280;9537;45.594;9.294;2023-10-31T04:24:49;97862.16;;;13.51;100.00
18819;BME280;9537;45.594;9.294;2023-10-31T04:25:51;97861.25;;;13.45;100.00
18819;BME280;9537;45.594;9.294;2023-10-31T04:26:52;97869.75;;;13.47;100.00
18819;BME280;9537;45.594;9.294;2023-10-31T04:27:54;97879.81;;;13.45;100.00
18819;BME280;9537;45.594;9.294;2023-10-31T04:28:55;97885.13;;;13.45;100.00
18819;BME280;9537;45.594;9.294;2023-10-31T04:29:57;97901.84;;;13.46;100.00
18819;BME280;9537;45.594;9.294;2023-10-31T04:30:58;97907.94;;;13.46;100.00
18819;BME280;9537;45.594;9.294;2023-10-31T04:32:00;97910.84;;;13.45;100.00
18819;BME280;9537;45.594;9.294;2023-10-31T04:33:01;97935.03;;;13.48;100.00
18819;BME280;9537;45.594;9.294;2023-10-31T04:34:04;97937.25;;;13.40;100.00
18819;BME280;9537;45.594;9.294;2023-10-31T04:35:07;97951.78;;;13.37;100.00
18819;BME280;9537;45.594;9.294;2023-10-31T04:36:09;97955.81;;;13.40;100.00
18819;BME280;9537;45.594;9.294;2023-10-31T04:37:11;97967.44;;;13.39;100.00
18819;BME280;9537;45.594;9.294;2023-10-31T04:38:12;97965.16;;;13.42;100.00
18819;BME280;9537;45.594;9.294;2023-10-31T04:39:14;97972.84;;;13.44;100.00
18819;BME280;9537;45.594;9.294;2023-10-31T04:40:16;97976.09;;;13.46;100.00
18819;BME280;9537;45.594;9.294;2023-10-31T04:41:18;97984.41;;;13.38;100.00
18819;BME280;9537;45.594;9.294;2023-10-31T04:42:19;97989.78;;;13.19;100.00
18819;BME280;9537;45.594;9.294;2023-10-31T04:43:20;97996.25;;;13.12;100.00
18819;BME280;9537;45.594;9.294;2023-10-31T04:44:22;98002.34;;;13.12;100.00
18819;BME280;9537;45.594;9.294;2023-10-31T04:45:23;97997.84;;;13.13;100.00
18819;BME280;9537;45.594;9.294;2023-10-31T04:46:25;97991.63;;;13.19;100.00
18819;BME280;9537;45.594;9.294;2023-10-31T04:47:27;97990.59;;;13.20;100.00
18819;BME280;9537;45.594;9.294;2023-10-31T04:48:28;97986.91;;;13.21;100.00
18819;BME280;9537;45.594;9.294;2023-10-31T04:49:29;97987.94;;;13.20;100.00
18819;BME280;9537;45.594;9.294;2023-10-31T04:50:30;97977.81;;;13.17;100.00
18819;BME280;9537;45.594;9.294;2023-10-31T04:51:35;97973.78;;;13.02;97.22
18819;BME280;9537;45.594;9.294;2023-10-31T04:52:36;97982.53;;;13.03;97.27
18819;BME280;9537;45.594;9.294;2023-10-31T04:53:38;97980.88;;;13.02;98.38
18819;BME280;9537;45.594;9.294;2023-10-31T04:54:39;97974.78;;;13.01;99.85
18819;BME280;9537;45.594;9.294;2023-10-31T04:55:43;97978.81;;;13.04;100.00
18819;BME280;9537;45.594;9.294;2023-10-31T04:56:43;97967.88;;;13.00;99.79
18819;BME280;9537;45.594;9.294;2023-10-31T04:57:45;97967.09;;;13.00;98.22
18819;BME280;9537;45.594;9.294;2023-10-31T04:58:46;97967.88;;;13.00;97.12
18819;BME280;9537;45.594;9.294;2023-10-31T04:59:48;97973.19;;;13.00;97.11
18819;BME280;9537;45.594;9.294;2023-10-31T05:00:49;97963.84;;;12.98;98.31
18819;BME280;9537;45.594;9.294;2023-10-31T05:01:51;97970.88;;;12.92;97.48
18819;BME280;9537;45.594;9.294;2023-10-31T05:02:52;97974.78;;;12.90;98.25
18819;BME280;9537;45.594;9.294;2023-10-31T05:03:54;97979.72;;;12.86;97.01
18819;BME280;9537;45.594;9.294;2023-10-31T05:04:55;97986.06;;;12.85;98.33
18819;BME280;9537;45.594;9.294;2023-10-31T05:05:58;97968.34;;;12.85;97.97
18819;BME280;9537;45.594;9.294;2023-10-31T05:06:59;97971.44;;;12.82;99.14
18819;BME280;9537;45.594;9.294;2023-10-31T05:08:01;97965.56;;;12.80;99.63
18819;BME280;9537;45.594;9.294;2023-10-31T05:09:02;97980.31;;;12.76;100.00
18819;BME280;9537;45.594;9.294;2023-10-31T05:10:04;97973.63;;;12.74;99.81
18819;BME280;9537;45.594;9.294;2023-10-31T05:11:07;97989.25;;;12.75;100.00
18819;BME280;9537;45.594;9.294;2023-10-31T05:12:09;97989.50;;;12.74;100.00
18819;BME280;9537;45.594;9.294;2023-10-31T05:13:10;98002.75;;;12.74;100.00
18819;BME280;9537;45.594;9.294;2023-10-31T05:14:11;98021.75;;;12.71;100.00
18819;BME280;9537;45.594;9.294;2023-10-31T05:15:12;98010.44;;;12.63;100.00
18819;BME280;9537;45.594;9.294;2023-10-31T05:16:14;98020.38;;;12.68;100.00
18819;BME280;9537;45.594;9.294;2023-10-31T05:17:15;98017.94;;;12.67;100.00
18819;BME280;9537;45.594;9.294;2023-10-31T05:18:17;98030.81;;;12.63;100.00
18819;BME280;9537;45.594;9.294;2023-10-31T05:19:17;98027.81;;;12.59;100.00
18819;BME280;9537;45.594;9.294;2023-10-31T05:20:20;98030.91;;;12.56;100.00
18819;BME280;9537;45.594;9.294;2023-10-31T05:21:20;98039.31;;;12.53;100.00
18819;BME280;9537;45.594;9.294;2023-10-31T05:22:24;98036.53;;;12.48;100.00
18819;BME280;9537;45.594;9.294;2023-10-31T05:23:25;98037.94;;;12.51;100.00
18819;BME280;9537;45.594;9.294;2023-10-31T05:24:26;98056.47;;;12.51;100.00
18819;BME280;9537;45.594;9.294;2023-10-31T05:25:27;98051.38;;;12.49;100.00